METAR Formatted Surface Weather Observation
Issued by NWS

Home | Current Version | Previous Version | Text Only | Print | Product List | Glossary On
Versions: 1 2 3 4 5 6
000
SPZS31 NSTU 220122
MTRSPP
SPECI NSTU 220120Z 08015KT 2SM SHRA SCT006 BKN012 OVC035 25/24 A2968=


USA.gov is the U.S. government's official web portal to all federal, state and local government web resources and services.